Time;durP1;ratioP1;P1;durP2;ratioP2;P2;SDS_P1;SDS_P2;PMS_P1;PMS_P2;Temp;Humidity;BMP_temperature;BMP_pressure;BME280_temperature;BME280_humidity;BME280_pressure;Samples;Min_cycle;Max_cycle;Signal;HPM_P1;HPM_P2
2022/10/23 00:01:34;;;;;;;20.68;15.60;;;;;;;10.04;74.79;100333.62;1734924;81;21066;-67
2022/10/23 00:04:12;;;;;;;22.05;16.32;;;;;;;10.03;74.80;100326.19;1726606;80;21667;-67
2022/10/23 00:06:39;;;;;;;21.45;16.70;;;;;;;10.09;74.53;100324.89;1730326;82;21019;-67
2022/10/23 00:09:08;;;;;;;25.00;17.95;;;;;;;10.14;74.49;100330.62;1735661;82;21232;-67
2022/10/23 00:11:34;;;;;;;21.85;16.97;;;;;;;10.13;74.60;100325.00;1726470;82;21062;-67
2022/10/23 00:14:02;;;;;;;20.23;16.00;;;;;;;10.10;74.57;100327.03;1731398;81;21044;-67
2022/10/23 00:16:29;;;;;;;22.37;15.43;;;;;;;10.15;74.39;100329.64;1731943;82;21028;-67
2022/10/23 00:18:56;;;;;;;21.20;15.83;;;;;;;10.18;74.24;100329.41;1736219;82;20992;-67
2022/10/23 00:21:25;;;;;;;22.75;16.75;;;;;;;10.20;74.17;100335.86;1743753;81;21038;-67
2022/10/23 00:23:51;;;;;;;24.07;17.62;;;;;;;10.19;74.18;100330.27;1724173;82;20939;-67
2022/10/23 00:26:18;;;;;;;23.83;16.57;;;;;;;10.15;74.25;100333.59;1739177;80;21015;-67
2022/10/23 00:28:47;;;;;;;22.75;17.25;;;;;;;10.11;74.35;100324.28;1731745;81;21090;-67
2022/10/23 00:31:14;;;;;;;25.10;16.77;;;;;;;10.06;74.36;100331.70;1718338;81;21047;-67
2022/10/23 00:33:41;;;;;;;22.25;16.07;;;;;;;10.05;74.33;100323.45;1726009;81;21232;-67
2022/10/23 00:36:10;;;;;;;21.57;16.30;;;;;;;10.08;74.21;100325.84;1728219;82;21011;-67
2022/10/23 00:38:37;;;;;;;23.22;17.32;;;;;;;10.15;73.99;100327.50;1729512;81;21604;-66
2022/10/23 00:41:05;;;;;;;18.85;16.30;;;;;;;10.16;74.01;100325.25;1727694;80;21014;-67
2022/10/23 00:43:33;;;;;;;20.97;16.12;;;;;;;10.12;74.26;100318.08;1733124;82;21330;-67
2022/10/23 00:46:00;;;;;;;24.98;17.37;;;;;;;10.11;74.29;100321.66;1736549;82;21505;-67
2022/10/23 00:48:27;;;;;;;20.57;15.10;;;;;;;10.10;74.39;100316.52;1736123;82;21107;-66
2022/10/23 00:50:53;;;;;;;21.33;15.13;;;;;;;10.07;74.36;100313.67;1717421;82;21085;-67
2022/10/23 00:53:21;;;;;;;20.88;15.38;;;;;;;10.08;74.37;100313.18;1712392;82;21547;-67
2022/10/23 00:55:49;;;;;;;19.45;15.13;;;;;;;10.12;74.40;100307.56;1707770;82;21055;-66
2022/10/23 00:58:18;;;;;;;20.88;15.78;;;;;;;10.18;74.29;100306.23;1710762;82;21749;-67
2022/10/23 01:00:51;;;;;;;20.50;15.72;;;;;;;10.13;74.31;100312.34;1721530;81;21121;-67
2022/10/23 01:03:23;;;;;;;19.77;15.93;;;;;;;10.07;74.40;100307.55;1726204;82;21024;-66
2022/10/23 01:06:14;;;;;;;21.80;15.98;;;;;;;10.04;74.55;100303.39;1684928;83;21538;-68
2022/10/23 01:09:02;;;;;;;18.62;14.63;;;;;;;10.05;74.59;100298.47;1690717;83;21030;-68
2022/10/23 01:11:53;;;;;;;21.57;15.28;;;;;;;10.06;74.45;100298.84;1699416;83;21233;-68
2022/10/23 01:14:43;;;;;;;22.22;15.43;;;;;;;10.09;74.46;100299.91;1683042;83;21088;-68
2022/10/23 01:18:00;;;;;;;24.98;16.00;;;;;;;10.11;74.55;100294.05;1636897;83;22095;-66
2022/10/23 01:20:39;;;;;;;19.77;16.27;;;;;;;10.13;74.56;100292.13;1691450;83;21662;-67
2022/10/23 01:23:58;;;;;;;26.73;16.95;;;;;;;10.07;74.57;100286.06;1688708;82;21114;-68
2022/10/23 01:26:48;;;;;;;20.82;15.03;;;;;;;10.05;74.59;100281.38;1689652;82;21347;-67
2022/10/23 01:29:29;;;;;;;22.67;15.53;;;;;;;10.09;74.50;100281.52;1693832;82;21101;-68
2022/10/23 01:32:04;;;;;;;23.95;16.80;;;;;;;10.09;74.54;100274.94;1695384;82;21038;-67
2022/10/23 01:34:46;;;;;;;24.80;16.65;;;;;;;10.04;74.64;100275.30;1704101;82;21095;-67
2022/10/23 01:37:17;;;;;;;22.70;15.72;;;;;;;9.98;74.82;100265.75;1687996;83;21037;-68
2022/10/23 01:39:47;;;;;;;20.32;15.25;;;;;;;9.96;74.92;100261.09;1688225;82;22097;-68
2022/10/23 01:42:20;;;;;;;18.42;15.25;;;;;;;9.98;74.89;100259.17;1689878;83;21044;-68
2022/10/23 01:45:00;;;;;;;18.40;15.08;;;;;;;9.94;75.08;100257.28;1672915;85;21181;-68
2022/10/23 01:47:30;;;;;;;21.87;15.65;;;;;;;9.93;75.21;100256.08;1691115;83;21085;-68
2022/10/23 01:49:58;;;;;;;19.92;15.13;;;;;;;9.94;75.39;100261.70;1684162;83;21571;-68
2022/10/23 01:52:25;;;;;;;25.05;15.28;;;;;;;9.95;75.38;100256.79;1688127;83;21223;-68
2022/10/23 01:54:55;;;;;;;17.27;14.35;;;;;;;9.98;75.30;100253.92;1684681;82;21025;-68
2022/10/23 01:57:21;;;;;;;20.62;15.63;;;;;;;10.02;75.26;100254.05;1682163;83;21106;-69
2022/10/23 01:59:52;;;;;;;23.22;15.78;;;;;;;10.04;75.33;100252.95;1693852;82;21524;-68
2022/10/23 02:02:19;;;;;;;21.23;17.23;;;;;;;10.00;75.51;100254.17;1684240;82;21711;-68
2022/10/23 02:05:23;;;;;;;19.85;15.45;;;;;;;10.00;75.66;100254.63;1706670;82;21243;-68
2022/10/23 02:07:51;;;;;;;19.50;15.48;;;;;;;9.98;75.71;100256.06;1712121;82;21014;-67
2022/10/23 02:10:19;;;;;;;23.05;16.20;;;;;;;10.03;75.58;100247.33;1716638;82;21085;-68
2022/10/23 02:12:55;;;;;;;21.20;16.50;;;;;;;10.07;75.55;100247.09;1717331;83;21501;-68
2022/10/23 02:15:35;;;;;;;23.60;17.07;;;;;;;10.04;75.67;100254.76;1716417;83;21054;-68
2022/10/23 02:18:13;;;;;;;19.35;15.48;;;;;;;10.01;75.85;100262.88;1717062;83;21230;-68
2022/10/23 02:20:51;;;;;;;24.02;15.00;;;;;;;9.98;75.83;100255.23;1712876;82;21027;-68
2022/10/23 02:23:40;;;;;;;19.62;15.40;;;;;;;10.01;75.72;100262.39;1716057;83;21002;-68
2022/10/23 02:26:15;;;;;;;21.23;16.82;;;;;;;10.03;75.74;100260.95;1715626;82;21054;-68
2022/10/23 02:29:13;;;;;;;21.27;16.48;;;;;;;9.98;75.89;100262.62;1707042;83;21015;-68
2022/10/23 02:31:41;;;;;;;23.22;15.90;;;;;;;9.95;76.12;100262.05;1712207;82;22381;-68
2022/10/23 02:34:08;;;;;;;23.65;16.25;;;;;;;9.95;76.17;100260.73;1714498;83;21038;-68
2022/10/23 02:36:34;;;;;;;21.25;16.52;;;;;;;10.00;76.12;100263.83;1714361;82;21530;-68
2022/10/23 02:39:02;;;;;;;24.12;17.10;;;;;;;10.05;76.07;100253.78;1710795;82;21099;-68
2022/10/23 02:41:58;;;;;;;23.90;16.57;;;;;;;10.07;75.96;100257.14;1707156;82;21065;-67
2022/10/23 02:44:52;;;;;;;;;;;;;;;10.06;76.05;100263.34;1719357;82;21151;-68
2022/10/23 02:47:47;;;;;;;21.37;15.98;;;;;;;10.03;76.04;100261.78;1693369;83;20229;-67
2022/10/23 02:50:44;;;;;;;21.30;16.42;;;;;;;9.97;76.23;100260.98;1715879;82;21039;-67
2022/10/23 02:53:23;;;;;;;23.57;16.17;;;;;;;9.98;76.20;100261.31;1716538;83;21504;-68
2022/10/23 02:56:04;;;;;;;21.62;16.35;;;;;;;10.00;76.05;100258.11;1710520;83;21007;-68
2022/10/23 02:58:55;;;;;;;24.05;17.87;;;;;;;10.01;76.03;100258.45;1717302;83;21860;-68
2022/10/23 03:01:26;;;;;;;23.40;17.87;;;;;;;10.01;76.15;100253.68;1705971;82;21073;-68
2022/10/23 03:03:58;;;;;;;21.70;16.60;;;;;;;10.00;76.34;100252.00;1715544;82;21117;-68
2022/10/23 03:06:25;;;;;;;23.07;17.50;;;;;;;9.98;76.45;100253.43;1742426;82;21095;-68
2022/10/23 03:08:54;;;;;;;23.27;15.78;;;;;;;9.97;76.43;100254.41;1739710;80;21591;-68
2022/10/23 03:11:20;;;;;;;21.33;16.17;;;;;;;10.00;76.33;100252.86;1737216;82;21206;-68
2022/10/23 03:13:49;;;;;;;22.35;16.35;;;;;;;10.04;76.30;100247.70;1743825;82;21050;-68
2022/10/23 03:16:15;;;;;;;20.92;16.17;;;;;;;10.07;76.37;100249.72;1743159;80;21090;-68
2022/10/23 03:19:30;;;;;;;22.30;17.10;;;;;;;10.04;77.00;100249.50;1798340;79;22643;-56
2022/10/23 03:21:59;;;;;;;20.75;16.45;;;;;;;10.17;76.10;100251.50;1745452;81;21406;-56
2022/10/23 03:24:26;;;;;;;22.35;15.65;;;;;;;10.17;76.00;100252.81;1745746;81;21248;-56
2022/10/23 03:26:52;;;;;;;20.90;15.23;;;;;;;10.22;75.93;100253.73;1741927;81;21079;-55
2022/10/23 03:29:22;;;;;;;20.92;16.35;;;;;;;10.27;75.88;100238.91;1724626;82;21061;-56
2022/10/23 03:31:49;;;;;;;22.93;17.40;;;;;;;10.29;75.83;100243.56;1736066;81;21430;-56
2022/10/23 03:34:16;;;;;;;22.17;16.57;;;;;;;10.27;75.92;100240.22;1723879;82;21102;-56
2022/10/23 03:36:43;;;;;;;20.52;16.27;;;;;;;10.23;75.92;100238.33;1719791;82;21231;-56
2022/10/23 03:39:10;;;;;;;21.23;15.75;;;;;;;10.20;75.91;100235.94;1743255;82;21018;-56
2022/10/23 03:41:38;;;;;;;20.57;15.70;;;;;;;10.23;75.83;100237.02;1747546;82;21026;-56
2022/10/23 03:44:05;;;;;;;21.57;16.20;;;;;;;10.26;75.83;100236.77;1750526;82;21082;-55
2022/10/23 03:46:33;;;;;;;24.45;17.87;;;;;;;10.27;75.88;100238.91;1736934;81;21051;-56
2022/10/23 03:48:59;;;;;;;22.10;16.52;;;;;;;10.26;75.97;100234.14;1721366;82;21247;-56
2022/10/23 03:51:26;;;;;;;20.45;16.57;;;;;;;10.22;76.12;100232.70;1729678;81;21062;-56
2022/10/23 03:53:53;;;;;;;21.15;16.40;;;;;;;10.21;76.10;100229.25;1741648;82;21098;-55
2022/10/23 03:56:21;;;;;;;21.37;16.70;;;;;;;10.25;75.90;100236.41;1728174;82;21078;-55
2022/10/23 03:58:47;;;;;;;19.80;16.17;;;;;;;10.26;75.80;100234.14;1720422;83;21074;-55
2022/10/23 04:01:14;;;;;;;20.02;15.98;;;;;;;10.27;75.88;100230.56;1730762;82;21502;-55
2022/10/23 04:03:40;;;;;;;25.10;18.35;;;;;;;10.26;75.97;100235.45;1744945;82;20992;-55
2022/10/23 04:06:07;;;;;;;23.02;17.30;;;;;;;10.23;76.06;100229.95;1730183;81;21058;-55
2022/10/23 04:08:34;;;;;;;24.25;17.15;;;;;;;10.21;75.95;100229.25;1705698;83;21083;-56
2022/10/23 04:11:05;;;;;;;22.77;17.05;;;;;;;10.25;75.89;100228.52;1736652;82;21548;-55
2022/10/23 04:13:35;;;;;;;21.12;17.02;;;;;;;10.29;75.74;100230.41;1739490;82;21099;-55
2022/10/23 04:16:03;;;;;;;23.05;18.27;;;;;;;10.29;75.86;100229.09;1720865;82;21544;-56
2022/10/23 04:18:30;;;;;;;23.25;18.27;;;;;;;10.29;76.01;100227.32;1718274;82;21103;-56
2022/10/23 04:20:57;;;;;;;25.70;17.32;;;;;;;10.27;76.01;100224.45;1713756;82;21609;-55
2022/10/23 04:23:24;;;;;;;21.70;17.30;;;;;;;10.26;75.91;100222.31;1727605;82;21066;-55
2022/10/23 04:25:50;;;;;;;23.30;16.40;;;;;;;10.29;75.74;100226.47;1740800;82;21230;-56
2022/10/23 04:28:17;;;;;;;24.15;17.48;;;;;;;10.32;75.75;100222.31;1742453;82;21541;-56
2022/10/23 04:30:45;;;;;;;23.60;17.62;;;;;;;10.32;75.77;100221.84;1730961;82;21098;-56
2022/10/23 04:33:12;;;;;;;22.73;18.75;;;;;;;10.31;75.93;100228.52;1730401;82;21063;-55
2022/10/23 04:35:39;;;;;;;19.95;17.12;;;;;;;10.26;75.96;100223.63;1737214;82;21075;-55
2022/10/23 04:38:06;;;;;;;21.80;16.93;;;;;;;10.25;75.93;100213.22;1736970;82;21708;-56
2022/10/23 04:40:33;;;;;;;25.62;18.32;;;;;;;10.28;75.83;100216.44;1728752;82;21008;-55
2022/10/23 04:43:00;;;;;;;24.75;19.10;;;;;;;10.29;75.73;100218.12;1741649;82;20996;-56
2022/10/23 04:45:29;;;;;;;21.17;18.32;;;;;;;10.31;75.87;100219.31;1738978;82;21047;-56
2022/10/23 04:47:55;;;;;;;25.30;18.87;;;;;;;10.30;76.11;100215.83;1731239;81;21561;-62
2022/10/23 04:50:23;;;;;;;22.40;17.92;;;;;;;10.28;76.05;100215.61;1733023;82;21144;-55
2022/10/23 04:53:08;;;;;;;23.87;17.05;;;;;;;10.25;76.07;100220.63;1730662;82;21028;-56
2022/10/23 04:55:56;;;;;;;23.47;18.32;;;;;;;10.28;75.88;100222.19;1707630;82;21111;-54
2022/10/23 04:58:36;;;;;;;24.20;18.95;;;;;;;10.27;75.95;100221.36;1734840;82;21055;-55
2022/10/23 05:01:02;;;;;;;22.48;17.92;;;;;;;10.22;76.14;100223.04;1727708;82;21531;-55
2022/10/23 05:03:29;;;;;;;28.12;18.32;;;;;;;10.17;76.33;100222.58;1731399;82;23175;-55
2022/10/23 05:05:56;;;;;;;26.23;18.40;;;;;;;10.18;76.44;100222.91;1731350;82;21067;-55
2022/10/23 05:08:28;;;;;;;25.25;17.87;;;;;;;10.24;76.34;100224.23;1720015;82;21074;-55
2022/10/23 05:11:07;;;;;;;24.05;18.37;;;;;;;10.29;76.28;100214.17;1710601;82;21072;-56
2022/10/23 05:13:37;;;;;;;24.85;19.73;;;;;;;10.33;76.33;100220.05;1706701;82;21067;-55
2022/10/23 05:16:04;;;;;;;21.45;18.32;;;;;;;10.32;76.52;100215.73;1719184;82;21229;-55
2022/10/23 05:18:37;;;;;;;23.77;17.95;;;;;;;10.31;76.59;100221.45;1738025;82;21048;-56
2022/10/23 05:21:12;;;;;;;21.20;16.80;;;;;;;10.31;76.49;100221.94;1721803;82;21112;-56
2022/10/23 05:23:41;;;;;;;20.85;17.27;;;;;;;10.36;76.36;100221.11;1719961;82;21047;-56
2022/10/23 05:26:08;;;;;;;21.70;17.30;;;;;;;10.39;76.30;100218.23;1722262;82;21068;-56
2022/10/23 05:28:36;;;;;;;22.77;17.92;;;;;;;10.42;76.37;100224.53;1728620;82;21288;-56
2022/10/23 05:31:04;;;;;;;21.25;18.10;;;;;;;10.40;76.49;100222.03;1730444;82;21561;-55
2022/10/23 05:33:33;;;;;;;24.92;19.12;;;;;;;10.40;76.59;100225.98;1735420;82;21044;-56
2022/10/23 05:36:01;;;;;;;21.27;17.60;;;;;;;10.41;76.69;100225.52;1717901;82;21111;-55
2022/10/23 05:38:31;;;;;;;23.67;18.48;;;;;;;10.47;76.56;100221.05;1718047;82;21170;-55
2022/10/23 05:40:59;;;;;;;23.22;17.62;;;;;;;10.53;76.47;100223.19;1715949;82;21227;-55
2022/10/23 05:43:29;;;;;;;24.37;18.02;;;;;;;10.55;76.43;100223.06;1715976;82;21150;-56
2022/10/23 05:46:05;;;;;;;25.05;17.30;;;;;;;10.53;76.62;100231.08;1711177;82;21514;-56
2022/10/23 05:48:50;;;;;;;25.08;18.62;;;;;;;10.51;76.80;100236.95;1723781;82;21123;-55
2022/10/23 05:51:28;;;;;;;24.23;17.85;;;;;;;10.53;76.83;100237.66;1699183;82;21114;-55
2022/10/23 05:54:06;;;;;;;22.15;17.37;;;;;;;10.57;76.72;100236.45;1712126;82;21518;-57
2022/10/23 05:56:35;;;;;;;21.35;17.12;;;;;;;10.62;76.71;100232.59;1716363;82;21060;-55
2022/10/23 05:59:04;;;;;;;24.95;17.87;;;;;;;10.64;76.69;100235.47;1706874;82;21070;-55
2022/10/23 06:01:50;;;;;;;20.82;18.30;;;;;;;10.65;76.86;100234.48;1713069;82;21075;-55
2022/10/23 06:04:19;;;;;;;20.62;16.05;;;;;;;10.63;77.00;100231.16;1728777;82;21555;-55
2022/10/23 06:07:02;;;;;;;21.23;16.90;;;;;;;10.66;77.00;100230.05;1648044;84;21020;-56
2022/10/23 06:09:29;;;;;;;19.67;16.00;;;;;;;10.71;76.85;100223.47;1707082;82;21051;-55
2022/10/23 06:11:57;;;;;;;20.37;16.48;;;;;;;10.75;76.72;100221.41;1722991;82;21063;-55
2022/10/23 06:14:25;;;;;;;20.43;15.70;;;;;;;10.80;76.73;100231.06;1707182;82;21463;-55
2022/10/23 06:16:53;;;;;;;25.45;17.30;;;;;;;10.78;76.87;100235.63;1731758;82;22296;-55
2022/10/23 06:19:20;;;;;;;19.62;16.52;;;;;;;10.76;77.02;100231.81;1715397;82;21921;-55
2022/10/23 06:21:49;;;;;;;24.82;16.20;;;;;;;10.77;76.99;100241.36;1728983;82;21091;-55
2022/10/23 06:24:16;;;;;;;23.65;17.30;;;;;;;10.81;76.86;100232.75;1737218;82;21090;-56
2022/10/23 06:26:45;;;;;;;21.97;17.02;;;;;;;10.87;76.80;100237.97;1733011;82;21066;-55
2022/10/23 06:29:19;;;;;;;23.18;16.35;;;;;;;10.87;76.80;100229.58;1735743;82;21107;-54
2022/10/23 06:31:46;;;;;;;21.25;17.85;;;;;;;10.86;76.88;100227.94;1729846;82;21241;-56
2022/10/23 06:34:13;;;;;;;21.70;16.42;;;;;;;10.84;76.98;100228.52;1730181;82;21069;-55
2022/10/23 06:36:40;;;;;;;23.62;17.90;;;;;;;10.84;76.96;100231.16;1733486;82;21111;-56
2022/10/23 06:39:09;;;;;;;24.57;16.77;;;;;;;10.85;76.84;100222.80;1710577;82;21123;-55
2022/10/23 06:41:44;;;;;;;22.57;17.50;;;;;;;10.86;76.78;100226.62;1718273;82;21052;-55
2022/10/23 06:44:12;;;;;;;21.57;16.73;;;;;;;10.87;76.86;100228.27;1735180;82;21318;-55
2022/10/23 06:46:41;;;;;;;23.40;17.48;;;;;;;10.87;77.06;100224.81;1726293;82;22158;-55
2022/10/23 06:49:27;;;;;;;20.32;16.62;;;;;;;10.84;77.13;100221.94;1734044;82;21047;-55
2022/10/23 06:51:54;;;;;;;20.77;16.65;;;;;;;10.85;77.18;100218.36;1734265;82;20997;-55
2022/10/23 06:54:21;;;;;;;22.27;16.32;;;;;;;10.90;77.13;100218.80;1734620;82;21518;-55
2022/10/23 06:56:48;;;;;;;20.88;16.60;;;;;;;10.93;77.11;100215.92;1732441;82;22190;-55
2022/10/23 06:59:16;;;;;;;18.10;16.07;;;;;;;10.96;77.16;100215.66;1736567;81;21039;-56
2022/10/23 07:01:43;;;;;;;23.90;18.05;;;;;;;10.94;77.32;100214.97;1735760;82;21081;-55
2022/10/23 07:04:12;;;;;;;20.50;16.05;;;;;;;10.94;77.43;100214.97;1731975;82;21073;-55
2022/10/23 07:06:38;;;;;;;20.20;15.48;;;;;;;10.95;77.49;100216.61;1737071;82;21008;-55
2022/10/23 07:09:07;;;;;;;19.27;15.58;;;;;;;11.03;77.36;100219.08;1737496;82;21242;-55
2022/10/23 07:11:39;;;;;;;18.57;15.55;;;;;;;11.08;77.22;100219.55;1668710;82;21080;-55
2022/10/23 07:14:05;;;;;;;21.07;16.85;;;;;;;11.08;77.23;100214.28;1735242;82;21086;-55
2022/10/23 07:16:32;;;;;;;20.40;16.48;;;;;;;11.06;77.31;100220.14;1729069;82;21059;-55
2022/10/23 07:19:00;;;;;;;20.12;15.25;;;;;;;11.04;77.51;100221.58;1738853;82;21540;-55
2022/10/23 07:21:33;;;;;;;18.62;15.50;;;;;;;11.06;77.57;100222.77;1734770;82;21111;-55
2022/10/23 07:24:02;;;;;;;19.07;15.80;;;;;;;11.11;77.51;100217.95;1731180;82;21118;-55
2022/10/23 07:26:31;;;;;;;18.57;14.68;;;;;;;11.20;77.42;100224.25;1731679;82;21156;-55
2022/10/23 07:28:58;;;;;;;18.73;15.75;;;;;;;11.20;77.48;100223.77;1735038;82;21090;-55
2022/10/23 07:31:25;;;;;;;21.10;16.35;;;;;;;11.21;77.53;100224.09;1736998;81;21016;-55
2022/10/23 07:34:10;;;;;;;21.33;15.32;;;;;;;11.22;77.69;100227.09;1737549;82;21141;-56
2022/10/23 07:36:37;;;;;;;23.05;15.98;;;;;;;11.22;77.50;100220.51;1730882;82;21589;-55
2022/10/23 07:39:05;;;;;;;17.75;14.47;;;;;;;11.25;77.40;100224.20;1732882;82;21520;-56
2022/10/23 07:41:32;;;;;;;18.40;14.98;;;;;;;11.28;77.30;100225.72;1733177;82;21106;-56
2022/10/23 07:43:59;;;;;;;20.97;15.13;;;;;;;11.28;77.31;100220.45;1732961;82;21648;-56
2022/10/23 07:46:26;;;;;;;17.62;14.55;;;;;;;11.26;77.49;100223.25;1728321;82;21172;-56
2022/10/23 07:48:53;;;;;;;19.35;14.73;;;;;;;11.24;77.74;100220.37;1732132;82;21126;-56
2022/10/23 07:51:20;;;;;;;18.35;14.75;;;;;;;11.24;77.78;100220.37;1701870;82;21766;-55
2022/10/23 07:53:49;;;;;;;19.90;14.58;;;;;;;11.31;77.66;100213.61;1732568;82;21109;-55
2022/10/23 07:56:25;;;;;;;19.07;15.25;;;;;;;11.37;77.61;100208.31;1673209;82;21044;-55
2022/10/23 07:58:53;;;;;;;18.17;14.68;;;;;;;11.41;77.69;100213.17;1719181;82;21121;-55
2022/10/23 08:01:28;;;;;;;20.23;16.15;;;;;;;11.43;77.79;100216.98;1696595;82;21055;-56
2022/10/23 08:03:56;;;;;;;19.80;15.45;;;;;;;11.42;77.88;100210.07;1732962;82;21502;-56
2022/10/23 08:06:23;;;;;;;20.57;16.17;;;;;;;11.44;77.92;100206.81;1724331;82;21111;-56
2022/10/23 08:08:51;;;;;;;21.50;15.48;;;;;;;11.51;77.83;100214.03;1707572;82;20997;-55
2022/10/23 08:11:25;;;;;;;22.82;16.37;;;;;;;11.58;77.64;100214.83;1708515;82;21244;-56
2022/10/23 08:13:53;;;;;;;22.93;17.23;;;;;;;11.61;77.67;100214.57;1727712;82;21581;-55
2022/10/23 08:16:21;;;;;;;21.45;16.73;;;;;;;11.62;77.92;100210.98;1698111;82;21593;-55
2022/10/23 08:19:05;;;;;;;21.37;16.75;;;;;;;11.62;77.95;100210.48;1734107;82;21137;-55
2022/10/23 08:21:33;;;;;;;23.70;18.48;;;;;;;11.64;77.97;100216.45;1738134;82;21069;-55
2022/10/23 08:24:00;;;;;;;21.45;17.67;;;;;;;11.69;77.86;100216.87;1749955;82;21226;-55
2022/10/23 08:26:29;;;;;;;24.43;17.23;;;;;;;11.75;77.86;100221.27;1746802;82;21455;-55
2022/10/23 08:28:57;;;;;;;23.18;17.77;;;;;;;11.78;78.07;100215.23;1748287;82;21517;-56
2022/10/23 08:31:24;;;;;;;21.55;17.25;;;;;;;11.82;78.21;100225.05;1710409;82;21097;-55
2022/10/23 08:33:52;;;;;;;23.90;16.17;;;;;;;11.85;78.33;100227.39;1707238;82;21031;-56
2022/10/23 08:36:23;;;;;;;21.62;16.17;;;;;;;11.88;78.31;100227.13;1741452;82;21530;-56
2022/10/23 08:38:53;;;;;;;21.52;16.23;;;;;;;11.93;78.17;100230.72;1742801;82;21331;-56
2022/10/23 08:41:25;;;;;;;23.55;17.52;;;;;;;11.97;78.09;100233.42;1741266;82;21508;-56
2022/10/23 08:44:22;;;;;;;21.27;17.12;;;;;;;11.99;78.12;100240.23;1739341;82;21057;-55
2022/10/23 08:47:23;;;;;;;26.02;17.32;;;;;;;11.97;78.30;100236.05;1739042;82;21096;-56
2022/10/23 08:50:15;;;;;;;21.37;17.00;;;;;;;11.94;78.59;100241.63;1643384;82;21675;-56
2022/10/23 08:53:06;;;;;;;19.45;16.15;;;;;;;11.99;78.66;100242.88;1733493;81;21070;-56
2022/10/23 08:55:36;;;;;;;23.98;17.07;;;;;;;12.04;78.73;100245.11;1721654;82;21415;-56
2022/10/23 08:58:14;;;;;;;26.10;18.17;;;;;;;12.07;78.96;100254.08;1724054;82;21091;-55
2022/10/23 09:00:42;;;;;;;22.20;17.80;;;;;;;12.05;79.22;100254.21;1722703;82;21119;-56
2022/10/23 09:03:09;;;;;;;21.25;15.48;;;;;;;12.08;79.34;100253.91;1721194;82;21226;-56
2022/10/23 09:05:53;;;;;;;24.43;17.00;;;;;;;12.14;79.26;100251.23;1724010;82;21008;-56
2022/10/23 09:08:47;;;;;;;23.30;17.15;;;;;;;12.23;79.21;100261.45;1720216;82;21122;-60
2022/10/23 09:11:41;;;;;;;21.37;17.35;;;;;;;12.26;79.18;100258.55;1716838;83;21117;-56
2022/10/23 09:14:43;;;;;;;23.18;15.88;;;;;;;12.26;79.30;100259.37;1727123;82;21118;-55
2022/10/23 09:17:32;;;;;;;21.77;15.95;;;;;;;12.31;79.39;100258.97;1717135;82;21853;-56
2022/10/23 09:20:26;;;;;;;22.02;16.55;;;;;;;12.40;79.17;100255.48;1725742;82;21080;-56
2022/10/23 09:23:02;;;;;;;22.20;17.12;;;;;;;12.45;79.05;100255.91;1717243;83;21058;-56
2022/10/23 09:25:38;;;;;;;24.05;17.12;;;;;;;12.48;79.04;100253.49;1718852;83;21064;-56
2022/10/23 09:28:05;;;;;;;25.40;16.62;;;;;;;12.48;79.22;100250.85;1709296;82;21044;-56
2022/10/23 09:30:41;;;;;;;23.83;16.60;;;;;;;12.51;79.07;100248.41;1714907;82;21515;-56
2022/10/23 09:33:18;;;;;;;21.67;16.47;;;;;;;12.56;78.92;100247.53;1706923;82;21064;-56
2022/10/23 09:35:59;;;;;;;22.62;16.90;;;;;;;12.60;78.83;100250.23;1769028;80;21823;-56
2022/10/23 09:38:38;;;;;;;21.12;16.32;;;;;;;12.67;78.84;100243.91;1766101;80;21068;-57
2022/10/23 09:41:25;;;;;;;25.15;17.55;;;;;;;12.69;78.87;100247.23;1771306;80;21609;-56
2022/10/23 09:44:21;;;;;;;25.48;16.07;;;;;;;12.68;78.87;100242.45;1770405;80;21832;-56
2022/10/23 09:46:54;;;;;;;21.50;16.10;;;;;;;12.72;78.86;100243.00;1762938;80;21047;-55
2022/10/23 09:49:26;;;;;;;20.10;15.38;;;;;;;12.77;78.52;100245.55;1772640;80;21109;-56
2022/10/23 09:52:07;;;;;;;23.15;15.45;;;;;;;12.81;78.47;100247.45;1769183;80;21050;-56
2022/10/23 09:54:49;;;;;;;23.70;17.32;;;;;;;12.85;78.48;100245.36;1767774;80;22329;-56
2022/10/23 09:57:37;;;;;;;21.37;14.85;;;;;;;12.83;78.62;100242.36;1762928;80;21773;-56
2022/10/23 10:00:18;;;;;;;19.92;14.35;;;;;;;12.86;78.74;100249.64;1762197;79;21098;-57
2022/10/23 10:03:03;;;;;;;19.45;14.13;;;;;;;12.89;78.44;100244.09;1765398;80;21688;-57
2022/10/23 10:05:44;;;;;;;20.85;15.32;;;;;;;12.93;78.30;100240.20;1770408;80;21029;-57
2022/10/23 10:08:46;;;;;;;22.73;16.20;;;;;;;12.98;78.21;100240.61;1770748;80;21083;-57
2022/10/23 10:11:41;;;;;;;21.87;16.37;;;;;;;12.99;78.19;100240.47;1765170;80;21899;-57
2022/10/23 10:14:31;;;;;;;;;;;;;;;12.95;78.18;100233.80;1773117;80;21507;-56
2022/10/23 10:17:34;;;;;;;19.37;14.85;;;;;;;12.93;78.29;100224.36;1763974;79;20206;-56
2022/10/23 10:20:25;;;;;;;21.75;14.83;;;;;;;12.99;78.40;100231.70;1770145;79;21039;-57
2022/10/23 10:23:06;;;;;;;21.10;16.23;;;;;;;13.05;78.28;100238.23;1767694;80;21068;-56
2022/10/23 10:26:05;;;;;;;19.98;15.23;;;;;;;13.07;78.28;100234.46;1770025;80;21204;-57
2022/10/23 10:29:06;;;;;;;19.05;14.23;;;;;;;13.05;78.32;100230.31;1779051;80;20997;-57
2022/10/23 10:31:54;;;;;;;20.62;15.48;;;;;;;13.07;78.31;100226.54;1772184;80;21047;-57
2022/10/23 10:34:32;;;;;;;19.95;14.15;;;;;;;13.11;78.10;100220.01;1689772;83;21541;-56
2022/10/23 10:37:08;;;;;;;20.45;15.25;;;;;;;13.14;77.94;100224.98;1744454;80;21056;-57
2022/10/23 10:40:12;;;;;;;22.87;15.72;;;;;;;13.14;78.12;100222.34;1728947;80;21249;-56
2022/10/23 10:43:16;;;;;;;18.23;13.72;;;;;;;13.16;77.96;100221.73;1774352;80;21479;-57
2022/10/23 10:45:47;;;;;;;18.80;13.93;;;;;;;13.19;77.76;100225.38;1777421;79;21059;-58
2022/10/23 10:48:43;;;;;;;18.10;14.05;;;;;;;13.19;77.79;100220.09;1779251;80;21068;-58
2022/10/23 10:51:34;;;;;;;17.55;13.50;;;;;;;13.17;78.06;100214.13;1772825;79;21078;-56
2022/10/23 10:54:18;;;;;;;19.62;14.20;;;;;;;13.17;78.16;100210.67;1780189;80;21136;-56
2022/10/23 10:56:44;;;;;;;18.60;13.90;;;;;;;13.20;78.12;100216.49;1777299;79;21017;-57
2022/10/23 10:59:23;;;;;;;18.00;13.72;;;;;;;13.22;78.16;100216.34;1758590;79;21114;-56
2022/10/23 11:02:03;;;;;;;21.00;14.47;;;;;;;13.22;78.36;100216.34;1759824;80;21023;-57
2022/10/23 11:04:50;;;;;;;20.08;13.62;;;;;;;13.20;78.68;100215.17;1755610;80;21004;-57
2022/10/23 11:07:21;;;;;;;19.57;13.43;;;;;;;13.22;78.59;100208.92;1759580;80;21038;-57
2022/10/23 11:09:48;;;;;;;20.10;14.28;;;;;;;13.25;78.41;100211.28;1751986;80;21094;-57
2022/10/23 11:12:19;;;;;;;18.80;14.00;;;;;;;13.27;78.39;100210.64;1770002;80;21070;-57
2022/10/23 11:14:47;;;;;;;19.50;14.28;;;;;;;13.25;78.45;100208.64;1769343;79;21027;-58
2022/10/23 11:17:29;;;;;;;17.37;12.95;;;;;;;13.22;78.74;100210.25;1763354;79;21126;-58
2022/10/23 11:20:26;;;;;;;17.85;12.98;;;;;;;13.20;78.90;100207.25;1755612;79;21179;-58
2022/10/23 11:22:58;;;;;;;19.45;13.68;;;;;;;13.25;78.90;100203.36;1756900;79;21074;-58
2022/10/23 11:25:57;;;;;;;17.95;13.32;;;;;;;13.31;78.93;100202.75;1756593;80;20993;-57
2022/10/23 11:28:49;;;;;;;16.82;13.32;;;;;;;13.32;78.98;100207.93;1731537;82;21153;-59
2022/10/23 11:31:55;;;;;;;19.15;12.68;;;;;;;13.27;79.19;100210.14;1763132;80;20997;-58
2022/10/23 11:34:36;;;;;;;14.55;12.15;;;;;;;13.24;79.30;100203.82;1755740;80;21118;-58
2022/10/23 11:37:03;;;;;;;17.23;12.85;;;;;;;13.27;79.42;100202.72;1768683;80;21051;-58
2022/10/23 11:39:33;;;;;;;16.48;12.25;;;;;;;13.29;79.46;100198.94;1766726;80;20998;-58
2022/10/23 11:42:07;;;;;;;15.95;11.75;;;;;;;13.34;79.54;100205.97;1765048;80;20993;-58
2022/10/23 11:44:41;;;;;;;15.70;10.78;;;;;;;13.35;79.67;100208.14;1770490;80;21545;-57